Time;durP1;ratioP1;P1;durP2;ratioP2;P2;SDS_P1;SDS_P2;PMS_P1;PMS_P2;Temp;Humidity;BMP_temperature;BMP_pressure;BME280_temperature;BME280_humidity;BME280_pressure;Samples;Min_cycle;Max_cycle;Signal;HPM_P1;HPM_P2
2022/01/12 00:01:42;;;;;;;8.70;5.17;;;6.90;51.40;;;;;;5102122;28;20447;-52
2022/01/12 00:04:12;;;;;;;6.27;5.33;;;6.90;51.60;;;;;;5103081;28;20495;-54
2022/01/12 00:06:37;;;;;;;5.77;5.17;;;6.80;51.70;;;;;;5104945;28;20449;-52
2022/01/12 00:09:07;;;;;;;9.17;5.27;;;6.80;51.80;;;;;;5107221;28;20493;-53
2022/01/12 00:11:35;;;;;;;8.07;5.70;;;6.80;52.10;;;;;;5104008;28;20195;-53
2022/01/12 00:14:00;;;;;;;9.10;6.47;;;6.80;52.10;;;;;;5107708;28;20487;-51
2022/01/12 00:16:26;;;;;;;7.33;6.40;;;6.80;51.90;;;;;;5098401;28;20528;-54
2022/01/12 00:18:52;;;;;;;6.60;5.93;;;6.80;51.60;;;;;;5107394;28;20198;-50
2022/01/12 00:21:17;;;;;;;11.33;5.80;;;6.70;51.40;;;;;;5099198;28;20198;-51
2022/01/12 00:23:43;;;;;;;6.80;5.70;;;6.70;51.50;;;;;;5101162;28;20261;-52
2022/01/12 00:26:12;;;;;;;7.77;5.70;;;6.60;51.40;;;;;;5106099;28;20203;-51
2022/01/12 00:34:10;;;;;;;7.60;6.50;;;6.60;52.00;;;;;;5105396;28;20459;-51
2022/01/12 00:36:38;;;;;;;7.13;6.43;;;6.50;52.10;;;;;;5105551;28;20509;-53
2022/01/12 00:39:06;;;;;;;7.73;6.50;;;6.50;52.30;;;;;;5108306;28;20889;-50
2022/01/12 00:41:32;;;;;;;8.00;5.97;;;6.50;52.30;;;;;;5108674;28;20444;-50
2022/01/12 00:43:59;;;;;;;6.80;5.63;;;6.40;52.40;;;;;;5103302;28;20500;-50
2022/01/12 00:46:30;;;;;;;6.60;5.10;;;6.50;52.50;;;;;;5101914;28;20444;-51
2022/01/12 00:48:57;;;;;;;6.83;6.03;;;6.50;52.40;;;;;;5107830;28;20481;-50
2022/01/12 00:51:26;;;;;;;8.23;5.83;;;6.50;52.30;;;;;;5101888;28;20490;-50
2022/01/12 00:53:56;;;;;;;7.23;5.67;;;6.40;52.50;;;;;;5101277;28;20497;-51
2022/01/12 00:56:22;;;;;;;8.13;5.90;;;6.40;52.90;;;;;;5106047;28;20447;-50
2022/01/12 00:58:49;;;;;;;18.90;5.90;;;6.40;52.60;;;;;;5106869;28;20811;-50
2022/01/12 01:01:14;;;;;;;6.63;5.47;;;6.30;52.60;;;;;;5104513;28;20497;-51
2022/01/12 01:03:40;;;;;;;7.10;5.67;;;6.40;52.80;;;;;;5100282;28;20489;-51
2022/01/12 01:06:11;;;;;;;10.17;5.80;;;6.40;52.90;;;;;;5103319;28;20195;-54
2022/01/12 01:08:37;;;;;;;7.50;6.43;;;6.30;52.70;;;;;;5095870;28;20445;-51
2022/01/12 01:11:03;;;;;;;8.60;6.47;;;6.20;52.70;;;;;;5107316;28;21397;-50
2022/01/12 01:13:35;;;;;;;8.03;6.10;;;6.20;52.70;;;;;;5103233;28;20506;-50
2022/01/12 01:16:27;;;;;;;6.50;5.60;;;6.20;52.90;;;;;;5095393;28;20502;-51
2022/01/12 01:27:06;;;;;;;6.77;5.57;;;6.20;52.70;;;;;;5095301;28;20443;-51
2022/01/12 01:29:31;;;;;;;6.70;5.23;;;6.10;52.60;;;;;;5102414;28;20464;-50
2022/01/12 01:31:57;;;;;;;8.27;4.90;;;6.10;52.80;;;;;;5107689;28;20971;-51
2022/01/12 01:34:23;;;;;;;5.53;5.03;;;6.10;52.80;;;;;;5109896;28;20194;-50
2022/01/12 01:36:53;;;;;;;5.03;4.33;;;6.00;52.80;;;;;;5103185;28;20495;-50
2022/01/12 01:39:21;;;;;;;7.30;4.60;;;6.00;53.00;;;;;;5095238;28;20215;-50
2022/01/12 01:42:01;;;;;;;6.20;5.17;;;6.00;52.90;;;;;;5098077;28;20986;-51
2022/01/12 01:55:11;;;;;;;7.60;5.57;;;5.50;54.30;;;;;;5099772;28;20962;-50
2022/01/12 01:57:38;;;;;;;7.57;6.13;;;5.50;54.40;;;;;;5103040;28;20982;-52
2022/01/12 02:00:08;;;;;;;9.57;6.60;;;5.50;54.40;;;;;;5108027;28;21029;-51
2022/01/12 02:02:33;;;;;;;9.97;6.20;;;5.50;54.50;;;;;;5094654;28;20444;-51
2022/01/12 02:04:59;;;;;;;7.90;5.50;;;5.60;54.50;;;;;;5098879;28;20508;-52
2022/01/12 02:07:25;;;;;;;8.70;6.30;;;5.50;54.30;;;;;;5099102;28;20266;-50
2022/01/12 02:09:50;;;;;;;9.20;6.20;;;5.50;54.40;;;;;;5109120;28;20195;-51
2022/01/12 02:12:28;;;;;;;9.63;6.27;;;5.50;54.40;;;;;;5095571;28;20383;-54
2022/01/12 02:14:55;;;;;;;8.00;6.70;;;5.50;54.60;;;;;;5091783;28;20648;-53
2022/01/12 02:17:26;;;;;;;8.93;6.83;;;5.50;54.70;;;;;;5106126;28;20436;-53
2022/01/12 02:20:13;;;;;;;7.30;5.93;;;5.50;54.60;;;;;;5104153;28;20429;-54
2022/01/12 02:36:28;;;;;;;10.17;6.37;;;5.60;54.10;;;;;;5105370;28;21043;-54
2022/01/12 02:41:39;;;;;;;6.83;5.60;;;5.50;53.90;;;;;;5109077;28;20459;-51
2022/01/12 02:54:53;;;;;;;7.97;6.30;;;5.10;55.40;;;;;;5110593;28;20440;-53
2022/01/12 02:57:20;;;;;;;8.50;5.87;;;5.20;55.10;;;;;;5103778;28;20433;-51
2022/01/12 03:00:06;;;;;;;7.20;5.80;;;5.20;54.80;;;;;;5108358;28;20440;-54
2022/01/12 03:02:40;;;;;;;6.50;5.80;;;5.20;54.90;;;;;;5104197;28;20439;-54
2022/01/12 03:07:40;;;;;;;10.93;7.43;;;5.30;54.70;;;;;;5106256;28;20813;-51
2022/01/12 03:10:11;;;;;;;8.00;6.03;;;5.30;54.60;;;;;;5111007;28;20440;-53
2022/01/12 03:12:42;;;;;;;6.90;6.00;;;5.30;54.30;;;;;;5098241;28;20491;-51
2022/01/12 03:15:09;;;;;;;6.87;5.50;;;5.30;54.30;;;;;;5104630;28;21138;-53
2022/01/12 03:17:35;;;;;;;6.53;5.83;;;5.30;54.20;;;;;;5101519;28;20440;-53
2022/01/12 03:20:04;;;;;;;8.13;5.47;;;5.30;54.20;;;;;;5101944;27;20433;-50
2022/01/12 03:22:30;;;;;;;7.30;5.10;;;5.30;54.20;;;;;;5105870;28;20457;-50
2022/01/12 03:24:56;;;;;;;8.70;6.10;;;5.30;54.10;;;;;;5101814;28;20516;-50
2022/01/12 03:27:24;;;;;;;6.60;5.50;;;5.30;54.00;;;;;;5107839;28;20216;-52
2022/01/12 03:29:54;;;;;;;8.23;6.47;;;5.20;53.90;;;;;;5096625;28;20245;-53
2022/01/12 03:32:26;;;;;;;8.93;6.33;;;5.20;54.00;;;;;;5098026;28;20812;-52
2022/01/12 03:34:57;;;;;;;8.73;6.47;;;5.10;54.10;;;;;;5097051;28;20952;-51
2022/01/12 03:40:09;;;;;;;8.10;5.93;;;5.10;54.50;;;;;;5106945;28;20443;-51
2022/01/12 03:42:35;;;;;;;6.10;5.50;;;5.00;54.60;;;;;;5098305;28;20448;-53
2022/01/12 03:45:00;;;;;;;8.23;5.80;;;5.00;54.70;;;;;;5108625;28;20909;-51
2022/01/12 03:47:26;;;;;;;9.33;6.30;;;5.00;54.60;;;;;;5103232;28;20190;-50
2022/01/12 03:49:51;;;;;;;6.10;5.50;;;5.00;54.50;;;;;;5105569;28;20571;-51
2022/01/12 03:52:17;;;;;;;7.57;5.60;;;5.00;54.60;;;;;;5098413;28;20214;-51
2022/01/12 03:54:43;;;;;;;8.33;6.10;;;4.90;55.20;;;;;;5098107;28;20192;-50
2022/01/12 03:57:08;;;;;;;8.27;6.83;;;4.90;54.80;;;;;;5097211;28;20219;-51
2022/01/12 03:59:34;;;;;;;7.10;6.27;;;4.90;55.00;;;;;;5102164;28;20248;-51
2022/01/12 04:01:59;;;;;;;8.20;6.87;;;4.90;55.10;;;;;;5097748;28;20194;-51
2022/01/12 04:04:34;;;;;;;7.73;6.80;;;4.90;55.30;;;;;;5109563;28;20227;-54
2022/01/12 04:09:45;;;;;;;8.03;6.13;;;4.80;55.30;;;;;;5096422;28;22067;-54
2022/01/12 04:12:10;;;;;;;7.70;5.77;;;4.80;55.30;;;;;;5097000;28;20448;-54
2022/01/12 04:14:36;;;;;;;7.80;6.17;;;4.70;55.30;;;;;;5095009;28;20444;-52
2022/01/12 04:17:02;;;;;;;9.13;6.90;;;4.70;55.40;;;;;;5104916;28;20198;-51
2022/01/12 04:19:28;;;;;;;7.47;6.00;;;4.70;55.30;;;;;;5109230;28;20255;-52
2022/01/12 04:21:53;;;;;;;7.47;6.00;;;4.50;55.60;;;;;;5109573;28;20533;-52
2022/01/12 04:24:19;;;;;;;7.23;6.30;;;4.20;55.90;;;;;;5101566;28;20711;-53
2022/01/12 04:26:45;;;;;;;8.70;6.20;;;3.90;56.70;;;;;;5100875;28;20639;-53
2022/01/12 04:29:12;;;;;;;9.00;5.30;;;3.90;57.20;;;;;;5102927;28;20223;-52
2022/01/12 04:31:38;;;;;;;8.50;5.80;;;3.90;57.20;;;;;;5107380;27;20864;-54
2022/01/12 04:34:04;;;;;;;7.53;5.97;;;3.60;57.40;;;;;;5102348;28;20924;-53
2022/01/12 04:36:30;;;;;;;9.00;6.60;;;3.60;58.20;;;;;;5105028;28;20452;-53
2022/01/12 04:38:56;;;;;;;8.90;6.00;;;3.80;57.90;;;;;;5098293;28;20445;-54
2022/01/12 04:41:24;;;;;;;7.63;5.90;;;3.80;57.50;;;;;;5099747;28;21041;-53
2022/01/12 04:43:51;;;;;;;8.10;6.43;;;3.90;57.50;;;;;;5101639;28;20236;-54
2022/01/12 04:51:09;;;;;;;9.80;6.43;;;4.20;56.90;;;;;;5098446;28;20198;-52
2022/01/12 04:53:35;;;;;;;9.13;5.73;;;4.00;56.40;;;;;;5104030;28;20556;-53
2022/01/12 04:56:01;;;;;;;10.57;6.27;;;3.60;57.70;;;;;;5101602;28;20578;-54
2022/01/12 04:58:28;;;;;;;7.70;6.07;;;3.60;58.00;;;;;;5100971;28;20431;-51
2022/01/12 05:00:58;;;;;;;8.30;6.10;;;3.80;58.00;;;;;;5103049;28;20953;-54
2022/01/12 05:06:37;;;;;;;7.80;6.50;;;4.10;57.10;;;;;;5094401;28;20536;-54
2022/01/12 05:09:39;;;;;;;13.80;7.00;;;4.20;56.60;;;;;;5106321;28;20962;-54
2022/01/12 05:14:51;;;;;;;6.67;6.07;;;4.20;56.00;;;;;;5107286;28;20435;-53
2022/01/12 05:17:16;;;;;;;9.43;6.77;;;4.10;56.50;;;;;;5101089;28;20891;-54
2022/01/12 05:19:42;;;;;;;10.47;7.00;;;3.80;57.10;;;;;;5108996;28;20464;-55
2022/01/12 05:22:08;;;;;;;9.17;6.50;;;3.90;57.30;;;;;;5105115;28;20199;-51
2022/01/12 05:24:34;;;;;;;9.13;6.60;;;4.00;57.00;;;;;;5108336;28;20233;-53
2022/01/12 05:27:00;;;;;;;9.03;6.83;;;4.10;56.90;;;;;;5101413;28;20441;-54
2022/01/12 05:29:25;;;;;;;8.90;6.33;;;4.20;56.80;;;;;;5104796;28;20269;-51
2022/01/12 05:31:51;;;;;;;8.43;6.40;;;4.20;56.40;;;;;;5107518;28;20654;-54
2022/01/12 05:34:17;;;;;;;7.43;5.97;;;4.30;56.00;;;;;;5104736;28;20201;-52
2022/01/12 05:36:42;;;;;;;8.43;6.67;;;4.30;55.80;;;;;;5100198;28;20301;-52
2022/01/12 05:39:08;;;;;;;9.90;6.70;;;4.40;55.80;;;;;;5102621;28;20191;-54
2022/01/12 05:41:34;;;;;;;9.10;6.90;;;4.40;55.80;;;;;;5100030;28;20622;-51
2022/01/12 05:43:59;;;;;;;10.27;8.27;;;4.40;55.70;;;;;;5095629;28;20226;-54
2022/01/12 05:46:27;;;;;;;10.63;7.10;;;4.40;55.60;;;;;;5096027;28;20194;-53
2022/01/12 05:51:38;;;;;;;12.03;8.30;;;4.50;55.30;;;;;;5107920;28;20455;-53
2022/01/12 05:54:04;;;;;;;9.07;7.47;;;4.50;55.10;;;;;;5107853;28;20437;-55
2022/01/12 05:56:29;;;;;;;9.67;7.83;;;4.40;54.90;;;;;;5097942;28;20559;-53
2022/01/12 05:58:55;;;;;;;11.23;8.83;;;4.30;54.90;;;;;;5103484;28;20428;-53
2022/01/12 06:01:21;;;;;;;12.40;8.10;;;4.10;55.50;;;;;;5106209;28;20199;-53
2022/01/12 06:03:47;;;;;;;10.80;8.20;;;4.00;55.80;;;;;;5105353;28;20226;-54
2022/01/12 06:06:13;;;;;;;12.53;7.37;;;4.00;55.80;;;;;;5104928;28;20444;-51
2022/01/12 06:08:39;;;;;;;15.50;11.30;;;4.10;55.80;;;;;;5101621;28;20653;-50
2022/01/12 06:11:06;;;;;;;14.63;11.20;;;4.20;55.60;;;;;;5103548;28;20194;-52
2022/01/12 06:13:31;;;;;;;12.40;9.43;;;4.30;55.50;;;;;;5103793;28;20796;-53
2022/01/12 06:15:57;;;;;;;11.93;9.37;;;4.20;55.30;;;;;;5101978;28;20502;-52
2022/01/12 06:18:23;;;;;;;13.10;10.00;;;4.20;55.20;;;;;;5102825;28;20554;-52
2022/01/12 06:20:48;;;;;;;11.40;8.53;;;4.20;55.20;;;;;;5102745;28;20265;-53
2022/01/12 06:23:14;;;;;;;8.67;7.07;;;4.30;56.00;;;;;;5105911;28;20195;-50
2022/01/12 06:25:39;;;;;;;9.13;8.23;;;4.60;57.50;;;;;;5103727;28;20199;-51
2022/01/12 06:28:37;;;;;;;8.80;7.60;;;5.00;58.80;;;;;;5108682;28;20620;-53
2022/01/12 06:31:13;;;;;;;9.73;8.00;;;5.50;58.60;;;;;;5103670;28;20570;-53
2022/01/12 06:33:41;;;;;;;9.50;8.00;;;5.70;57.80;;;;;;5102898;28;20549;-51
2022/01/12 06:36:08;;;;;;;11.00;7.77;;;6.10;57.30;;;;;;5101785;28;20472;-53
2022/01/12 06:38:34;;;;;;;8.30;6.63;;;6.20;55.60;;;;;;5101300;28;20490;-53
2022/01/12 06:40:59;;;;;;;10.63;8.00;;;6.30;53.90;;;;;;5103363;28;21272;-53
2022/01/12 06:43:27;;;;;;;9.97;7.70;;;6.50;53.70;;;;;;5106800;28;20220;-53
2022/01/12 06:45:53;;;;;;;10.63;8.00;;;6.60;52.50;;;;;;5102721;28;20229;-53
2022/01/12 06:48:19;;;;;;;10.27;6.80;;;6.50;50.90;;;;;;5102794;28;20460;-54
2022/01/12 06:50:44;;;;;;;8.53;7.40;;;6.30;50.70;;;;;;5101215;28;20436;-52
2022/01/12 06:53:10;;;;;;;9.50;8.10;;;5.90;50.70;;;;;;5106576;28;20190;-51
2022/01/12 06:55:36;;;;;;;10.20;7.70;;;5.40;51.40;;;;;;5104686;28;20252;-51
2022/01/12 06:58:01;;;;;;;13.27;7.67;;;4.50;52.90;;;;;;5105612;28;20183;-54
2022/01/12 07:00:27;;;;;;;10.13;7.67;;;4.20;54.30;;;;;;5106122;28;20183;-53
2022/01/12 07:02:54;;;;;;;9.07;7.47;;;3.80;55.10;;;;;;5102494;28;20256;-52
2022/01/12 07:05:19;;;;;;;12.63;8.20;;;3.30;56.10;;;;;;5100751;28;20309;-52
2022/01/12 07:07:45;;;;;;;8.67;7.23;;;3.10;57.30;;;;;;5092641;28;20532;-53
2022/01/12 07:10:13;;;;;;;10.77;8.00;;;3.00;57.80;;;;;;5097283;28;20669;-54
2022/01/12 07:12:39;;;;;;;10.60;8.50;;;3.20;57.80;;;;;;5092117;28;20265;-54
2022/01/12 07:15:05;;;;;;;10.53;8.20;;;3.40;57.60;;;;;;5106031;28;20432;-50
2022/01/12 07:17:31;;;;;;;9.27;8.13;;;3.60;57.20;;;;;;5103388;28;20685;-52
2022/01/12 07:19:56;;;;;;;12.43;8.63;;;3.70;56.70;;;;;;5096275;28;20536;-53
2022/01/12 07:22:22;;;;;;;13.50;8.30;;;3.80;56.20;;;;;;5093669;28;20195;-53
2022/01/12 07:24:47;;;;;;;11.60;9.37;;;3.70;55.80;;;;;;5101059;28;20584;-50
2022/01/12 07:27:13;;;;;;;12.20;9.40;;;3.60;56.40;;;;;;5108506;28;20187;-53
2022/01/12 07:29:39;;;;;;;12.63;10.33;;;3.30;56.30;;;;;;5104875;28;20588;-50
2022/01/12 07:32:05;;;;;;;12.33;8.90;;;3.20;57.10;;;;;;5105882;28;20204;-53
2022/01/12 07:34:30;;;;;;;16.17;8.97;;;3.50;57.90;;;;;;5101083;28;20217;-52
2022/01/12 07:36:56;;;;;;;11.40;9.27;;;4.10;57.10;;;;;;5098611;28;20432;-53
2022/01/12 07:39:22;;;;;;;11.43;8.77;;;4.80;55.20;;;;;;5104063;28;20222;-51
2022/01/12 07:41:47;;;;;;;12.53;9.30;;;5.50;53.60;;;;;;5110419;28;20604;-50
2022/01/12 07:44:13;;;;;;;12.47;8.27;;;6.10;52.10;;;;;;5106622;28;20626;-53
2022/01/12 07:46:38;;;;;;;12.57;8.47;;;6.30;51.00;;;;;;5099462;28;20194;-51
2022/01/12 07:49:04;;;;;;;10.03;8.33;;;6.80;50.90;;;;;;5110812;28;20217;-54
2022/01/12 07:51:30;;;;;;;12.63;9.60;;;7.60;49.40;;;;;;5104821;28;20191;-51
2022/01/12 07:53:55;;;;;;;10.30;8.70;;;8.60;47.70;;;;;;5093693;28;20313;-49
2022/01/12 07:56:21;;;;;;;9.43;8.50;;;9.30;45.60;;;;;;5107098;28;20187;-49
2022/01/12 07:58:46;;;;;;;9.90;7.90;;;9.50;44.50;;;;;;5106074;28;20199;-50
2022/01/12 08:01:12;;;;;;;11.10;8.60;;;9.70;44.20;;;;;;5111842;28;20725;-51
2022/01/12 08:03:38;;;;;;;11.83;8.70;;;10.00;42.50;;;;;;5111962;28;20347;-49
2022/01/12 08:06:03;;;;;;;11.00;8.77;;;10.20;42.10;;;;;;5111108;28;20202;-49
2022/01/12 08:08:29;;;;;;;10.50;8.83;;;9.90;43.20;;;;;;5110547;28;20469;-50
2022/01/12 08:10:55;;;;;;;13.63;8.90;;;9.70;43.90;;;;;;5106405;28;20187;-50
2022/01/12 08:13:21;;;;;;;11.10;9.90;;;9.40;44.50;;;;;;5102140;28;20237;-51
2022/01/12 08:15:47;;;;;;;13.70;10.10;;;9.00;45.30;;;;;;5105682;28;20206;-48
2022/01/12 08:18:12;;;;;;;11.77;9.33;;;8.40;46.40;;;;;;5100257;28;20437;-50
2022/01/12 08:20:38;;;;;;;10.20;8.80;;;8.00;47.80;;;;;;5106538;28;20197;-53
2022/01/12 08:23:04;;;;;;;12.93;10.40;;;7.70;48.10;;;;;;5109989;28;21941;-49
2022/01/12 08:25:29;;;;;;;12.67;10.23;;;7.10;49.20;;;;;;5098177;28;20612;-50
2022/01/12 08:27:55;;;;;;;13.07;11.40;;;6.90;50.40;;;;;;5102994;28;20205;-51
2022/01/12 08:30:28;;;;;;;13.67;11.73;;;6.80;51.10;;;;;;5110538;28;20638;-51
2022/01/12 08:32:55;;;;;;;16.07;11.23;;;6.60;51.60;;;;;;5106640;28;20198;-52
2022/01/12 08:35:24;;;;;;;13.57;10.63;;;6.60;52.10;;;;;;5107320;28;20433;-50
2022/01/12 08:37:49;;;;;;;13.50;10.93;;;6.50;52.70;;;;;;5108968;28;20780;-51
2022/01/12 08:40:17;;;;;;;13.13;9.70;;;6.50;53.30;;;;;;5109407;28;20429;-49
2022/01/12 08:42:43;;;;;;;13.87;10.67;;;6.80;59.30;;;;;;5108431;28;20199;-51
2022/01/12 08:45:10;;;;;;;13.20;10.57;;;6.90;56.20;;;;;;5100310;28;20469;-49
2022/01/12 08:47:35;;;;;;;12.17;9.63;;;6.90;54.50;;;;;;5103237;28;20431;-48
2022/01/12 08:50:02;;;;;;;12.57;9.33;;;6.80;53.90;;;;;;5107375;28;20437;-51
2022/01/12 08:52:30;;;;;;;13.63;10.53;;;6.70;53.40;;;;;;5111392;28;20229;-49
2022/01/12 08:54:55;;;;;;;13.93;10.73;;;6.50;53.70;;;;;;5110081;28;20916;-51
2022/01/12 08:57:21;;;;;;;13.27;10.23;;;6.50;53.70;;;;;;5111087;28;20542;-48
2022/01/12 08:59:47;;;;;;;11.20;9.77;;;6.10;53.90;;;;;;5095821;28;20183;-53
2022/01/12 09:02:14;;;;;;;14.93;10.80;;;6.00;54.90;;;;;;5106623;28;20187;-52
2022/01/12 09:04:42;;;;;;;11.97;9.70;;;5.90;55.00;;;;;;5111733;28;20831;-53
2022/01/12 09:07:08;;;;;;;12.23;9.30;;;5.80;55.40;;;;;;5099257;28;20583;-51
2022/01/12 09:09:35;;;;;;;11.37;9.37;;;5.60;55.70;;;;;;5112026;28;20416;-49
2022/01/12 09:12:03;;;;;;;14.00;10.53;;;5.40;56.30;;;;;;5108476;28;20725;-52
2022/01/12 09:14:29;;;;;;;13.57;10.83;;;5.20;56.00;;;;;;5094221;28;20444;-52
2022/01/12 09:16:56;;;;;;;13.40;10.27;;;5.30;56.90;;;;;;5089687;28;20955;-51
2022/01/12 09:19:23;;;;;;;14.13;9.80;;;5.40;56.60;;;;;;5095824;28;20215;-52
2022/01/12 09:21:48;;;;;;;12.93;10.60;;;5.50;56.40;;;;;;5090336;28;20425;-48
2022/01/12 09:24:14;;;;;;;13.40;10.47;;;5.60;56.20;;;;;;5101566;28;20477;-52
2022/01/12 09:26:40;;;;;;;13.80;11.00;;;5.70;56.70;;;;;;5107516;28;20273;-48
2022/01/12 09:29:06;;;;;;;15.67;11.43;;;5.60;56.80;;;;;;5095728;28;20246;-52
2022/01/12 09:31:32;;;;;;;14.60;11.87;;;5.70;56.80;;;;;;5111203;28;20463;-52
2022/01/12 09:33:58;;;;;;;17.10;10.63;;;5.80;56.70;;;;;;5093023;28;20218;-51
2022/01/12 09:36:23;;;;;;;13.10;10.67;;;5.80;56.40;;;;;;5096781;28;21223;-52
2022/01/12 09:38:49;;;;;;;12.27;10.00;;;5.90;56.10;;;;;;5091426;28;20203;-52
2022/01/12 09:41:15;;;;;;;11.37;10.03;;;5.80;55.60;;;;;;5110485;28;20218;-52
2022/01/12 09:43:42;;;;;;;12.13;9.47;;;5.60;55.80;;;;;;5109152;28;20656;-50
2022/01/12 09:46:09;;;;;;;12.93;9.10;;;5.50;56.50;;;;;;5096908;28;20242;-53
2022/01/12 09:48:36;;;;;;;15.07;9.90;;;5.70;56.80;;;;;;5109222;28;20425;-49
2022/01/12 09:51:04;;;;;;;13.87;10.40;;;5.80;56.50;;;;;;5109551;28;20437;-52
2022/01/12 09:53:32;;;;;;;10.13;9.00;;;6.10;55.60;;;;;;5092640;28;20797;-51
2022/01/12 09:55:58;;;;;;;11.30;8.50;;;6.50;55.10;;;;;;5098723;28;20439;-50
2022/01/12 09:58:24;;;;;;;12.50;9.57;;;7.00;53.80;;;;;;5110451;28;20865;-49
2022/01/12 10:01:01;;;;;;;12.90;9.40;;;7.40;52.40;;;;;;5106380;28;20428;-49
2022/01/12 10:03:30;;;;;;;15.23;10.13;;;7.80;51.20;;;;;;5095910;28;20190;-59
2022/01/12 10:05:56;;;;;;;10.90;9.37;;;8.10;50.00;;;;;;5098463;28;20435;-50
2022/01/12 10:08:22;;;;;;;13.20;9.83;;;8.40;49.30;;;;;;5090867;28;20438;-50
2022/01/12 10:11:06;;;;;;;13.23;10.13;;;8.50;49.00;;;;;;5094730;28;20221;-52
2022/01/12 10:13:32;;;;;;;10.33;8.83;;;8.60;48.20;;;;;;5099541;28;20696;-53
2022/01/12 10:16:18;;;;;;;12.00;9.77;;;8.40;48.20;;;;;;5107489;28;20806;-49
2022/01/12 10:18:57;;;;;;;10.27;9.17;;;8.60;47.90;;;;;;5096422;28;20485;-49
2022/01/12 10:21:35;;;;;;;10.00;8.33;;;8.90;47.80;;;;;;5097294;28;20440;-49
2022/01/12 10:24:05;;;;;;;10.60;8.67;;;9.20;47.00;;;;;;5098980;28;20850;-49
2022/01/12 10:26:33;;;;;;;13.70;9.43;;;9.40;46.70;;;;;;5095249;28;20448;-54
2022/01/12 10:29:04;;;;;;;10.37;9.30;;;9.60;46.70;;;;;;5105726;28;20539;-50
2022/01/12 10:31:30;;;;;;;9.50;8.50;;;9.80;45.30;;;;;;5096891;28;20437;-50
2022/01/12 10:34:03;;;;;;;10.10;8.93;;;9.90;45.00;;;;;;5101981;28;20931;-49
2022/01/12 10:36:39;;;;;;;12.67;9.00;;;9.90;44.70;;;;;;5098341;28;20433;-51
2022/01/12 10:39:06;;;;;;;10.33;8.70;;;9.80;44.30;;;;;;5104773;28;20436;-50
2022/01/12 10:41:32;;;;;;;10.67;9.03;;;9.70;44.40;;;;;;5099722;28;20528;-49
2022/01/12 10:43:57;;;;;;;10.47;9.10;;;9.70;44.40;;;;;;5097105;28;20531;-50
2022/01/12 10:46:26;;;;;;;11.73;9.53;;;9.70;44.80;;;;;;5100917;28;20190;-53
2022/01/12 10:48:54;;;;;;;11.57;8.43;;;9.80;45.00;;;;;;5108533;28;20198;-50
2022/01/12 10:51:28;;;;;;;9.83;8.50;;;9.90;45.00;;;;;;5100870;28;20424;-50
2022/01/12 10:54:03;;;;;;;9.43;8.33;;;10.10;43.40;;;;;;5097600;28;20462;-50
2022/01/12 10:56:29;;;;;;;9.50;7.93;;;10.20;42.40;;;;;;5099631;28;20440;-50
2022/01/12 10:58:56;;;;;;;8.80;7.90;;;10.30;42.30;;;;;;5104486;28;20424;-51
2022/01/12 11:01:25;;;;;;;9.60;8.60;;;10.30;42.50;;;;;;5097519;28;20199;-51
2022/01/12 11:03:51;;;;;;;10.30;9.27;;;10.40;42.90;;;;;;5105581;28;20468;-52
2022/01/12 11:06:17;;;;;;;9.27;8.33;;;10.50;42.80;;;;;;5107671;27;20433;-53
2022/01/12 11:08:47;;;;;;;10.20;8.83;;;10.50;41.90;;;;;;5103744;28;20421;-51
2022/01/12 11:11:15;;;;;;;9.80;8.80;;;10.70;42.50;;;;;;5098583;28;20324;-50
2022/01/12 11:13:40;;;;;;;13.10;9.63;;;11.00;41.80;;;;;;5107977;28;20444;-50
2022/01/12 11:16:06;;;;;;;10.97;9.80;;;11.20;42.20;;;;;;5103049;28;20750;-50
2022/01/12 11:18:35;;;;;;;10.67;9.17;;;11.40;42.40;;;;;;5106450;28;20639;-50
2022/01/12 11:21:18;;;;;;;11.90;9.77;;;11.60;42.00;;;;;;5112194;28;20681;-51
2022/01/12 11:23:44;;;;;;;11.07;8.87;;;11.60;41.40;;;;;;5103095;28;21049;-51
2022/01/12 11:26:23;;;;;;;9.40;8.40;;;11.70;40.40;;;;;;5102391;28;20520;-52
2022/01/12 11:28:52;;;;;;;8.70;7.80;;;11.60;40.10;;;;;;5102735;27;20234;-50
2022/01/12 11:31:27;;;;;;;10.97;8.00;;;11.50;40.00;;;;;;5103159;28;20912;-53
2022/01/12 11:33:53;;;;;;;9.60;7.97;;;11.40;40.30;;;;;;5105794;28;20475;-50
2022/01/12 11:36:28;;;;;;;8.90;7.90;;;11.30;40.90;;;;;;5096110;28;20436;-49
2022/01/12 11:39:15;;;;;;;10.20;8.30;;;11.10;41.00;;;;;;5102004;28;20238;-49
2022/01/12 11:41:47;;;;;;;9.60;7.90;;;11.10;40.70;;;;;;5104350;28;20850;-49
2022/01/12 11:44:22;;;;;;;10.30;8.20;;;10.90;41.30;;;;;;5111092;28;20830;-49
2022/01/12 11:46:50;;;;;;;7.80;7.07;;;10.90;40.60;;;;;;5100464;28;20464;-50
2022/01/12 11:49:30;;;;;;;10.10;8.90;;;10.90;40.60;;;;;;5105546;28;20482;-49
2022/01/12 11:52:00;;;;;;;10.43;8.83;;;10.70;40.90;;;;;;5105705;28;21079;-50
2022/01/12 11:54:36;;;;;;;9.40;8.27;;;9.90;42.30;;;;;;5109269;28;20436;-49
2022/01/12 11:57:07;;;;;;;8.83;7.93;;;9.30;43.80;;;;;;5098801;28;20457;-49
2022/01/12 11:59:57;;;;;;;11.63;10.40;;;9.00;44.60;;;;;;5097462;28;20475;-49
2022/01/12 12:02:35;;;;;;;12.03;9.93;;;8.60;45.30;;;;;;5099774;28;20441;-50
2022/01/12 12:05:10;;;;;;;11.60;9.37;;;8.50;46.90;;;;;;5104834;28;20484;-50
2022/01/12 12:07:46;;;;;;;9.90;8.90;;;8.80;46.50;;;;;;5100699;28;20444;-50
2022/01/12 12:10:14;;;;;;;9.13;8.10;;;9.00;45.70;;;;;;5108527;28;20589;-50
2022/01/12 12:12:40;;;;;;;11.57;9.40;;;8.70;45.50;;;;;;5096367;28;20779;-50
2022/01/12 12:15:08;;;;;;;10.47;8.87;;;8.60;46.00;;;;;;5103688;28;20444;-50
2022/01/12 12:17:36;;;;;;;9.30;8.30;;;8.70;46.60;;;;;;5098261;28;20706;-50
2022/01/12 12:20:07;;;;;;;9.90;8.90;;;9.00;45.70;;;;;;5105360;28;20435;-49
2022/01/12 12:22:38;;;;;;;11.40;9.70;;;9.10;45.30;;;;;;5110765;28;20440;-53
2022/01/12 12:25:08;;;;;;;9.83;8.90;;;9.10;45.30;;;;;;5108468;28;20621;-49
2022/01/12 12:27:36;;;;;;;9.53;8.63;;;9.40;45.20;;;;;;5108308;28;20510;-50
2022/01/12 12:30:05;;;;;;;9.30;7.90;;;9.30;44.40;;;;;;5104115;28;20472;-49
2022/01/12 12:32:36;;;;;;;7.90;7.10;;;9.20;44.80;;;;;;5098038;28;23944;-52
2022/01/12 12:35:12;;;;;;;8.17;7.20;;;9.50;46.00;;;;;;5104446;28;20436;-51
2022/01/12 12:37:45;;;;;;;9.23;7.87;;;9.60;46.70;;;;;;5104274;28;21000;-49
2022/01/12 12:40:20;;;;;;;8.77;7.53;;;9.90;46.80;;;;;;5104774;28;20935;-50
2022/01/12 12:43:04;;;;;;;8.87;7.03;;;10.20;43.40;;;;;;5102462;28;20444;-50
2022/01/12 12:45:48;;;;;;;10.10;7.57;;;9.70;44.70;;;;;;5101398;27;20916;-51
2022/01/12 12:48:17;;;;;;;9.53;7.77;;;9.90;44.90;;;;;;5106618;28;20440;-49
2022/01/12 12:50:43;;;;;;;9.07;8.07;;;10.20;43.40;;;;;;5102194;28;20800;-53
2022/01/12 12:53:09;;;;;;;9.10;7.30;;;10.40;42.70;;;;;;5101633;28;20459;-49
2022/01/12 12:55:41;;;;;;;10.40;7.60;;;10.80;41.50;;;;;;5097275;28;20430;-50
2022/01/12 12:58:07;;;;;;;12.43;7.20;;;11.10;41.20;;;;;;5104382;28;20448;-49
2022/01/12 13:00:35;;;;;;;8.60;7.70;;;11.40;40.20;;;;;;5103421;28;20429;-54
2022/01/12 13:03:03;;;;;;;9.17;8.17;;;11.60;40.00;;;;;;5098139;28;20424;-51
2022/01/12 13:05:34;;;;;;;12.00;7.80;;;11.70;39.30;;;;;;5100030;28;20490;-51
2022/01/12 13:08:00;;;;;;;9.13;7.27;;;11.60;39.40;;;;;;5100912;28;20437;-50
2022/01/12 13:10:29;;;;;;;10.80;8.63;;;11.60;39.40;;;;;;5096963;28;20446;-50
2022/01/12 13:13:00;;;;;;;8.70;7.83;;;11.60;39.50;;;;;;5089285;28;20432;-50
2022/01/12 13:15:34;;;;;;;9.77;8.70;;;11.60;39.00;;;;;;5097668;28;20441;-50
2022/01/12 13:18:04;;;;;;;13.67;10.23;;;11.70;39.20;;;;;;5105172;28;20444;-53
2022/01/12 13:23:24;;;;;;;8.80;7.90;;;11.70;39.10;;;;;;5101057;28;20447;-51
2022/01/12 13:25:54;;;;;;;13.87;11.40;;;11.90;39.80;;;;;;5103738;28;20483;-50
2022/01/12 13:28:20;;;;;;;9.43;8.10;;;12.00;40.10;;;;;;5094986;28;20456;-52
2022/01/12 13:30:55;;;;;;;8.90;8.10;;;12.20;39.00;;;;;;5109695;28;20432;-51
2022/01/12 13:33:30;;;;;;;8.63;7.67;;;12.10;38.60;;;;;;5094003;28;20788;-50
2022/01/12 13:35:58;;;;;;;10.43;9.23;;;12.20;38.60;;;;;;5091586;28;20437;-55
2022/01/12 13:38:27;;;;;;;8.00;7.20;;;12.30;38.90;;;;;;5106714;28;20477;-50
2022/01/12 13:40:55;;;;;;;12.50;10.03;;;12.40;39.70;;;;;;5106083;28;20476;-52
2022/01/12 13:43:22;;;;;;;36.43;26.27;;;12.60;39.00;;;;;;5103674;28;20929;-49
2022/01/12 13:45:56;;;;;;;11.30;9.53;;;12.60;38.60;;;;;;5095911;28;20551;-49
2022/01/12 13:48:29;;;;;;;59.63;37.53;;;12.50;38.50;;;;;;5109174;28;20625;-49
2022/01/12 13:50:55;;;;;;;47.57;30.67;;;12.40;38.90;;;;;;5105790;28;20436;-50
2022/01/12 13:53:31;;;;;;;16.60;11.70;;;12.40;38.70;;;;;;5106929;28;20440;-50
2022/01/12 13:55:57;;;;;;;17.67;13.13;;;12.50;38.80;;;;;;5103067;28;20451;-50
2022/01/12 13:58:28;;;;;;;19.77;12.70;;;12.50;38.60;;;;;;5103804;28;20424;-50
2022/01/12 14:01:10;;;;;;;36.00;18.87;;;12.60;39.30;;;;;;5096296;28;20194;-51
2022/01/12 14:03:41;;;;;;;26.03;16.43;;;12.60;38.90;;;;;;5098413;28;20449;-50
2022/01/12 14:06:25;;;;;;;19.13;13.67;;;12.50;39.10;;;;;;5107272;28;20424;-50
2022/01/12 14:08:55;;;;;;;32.50;20.57;;;12.70;39.20;;;;;;5096435;28;20472;-50
2022/01/12 14:11:21;;;;;;;18.50;12.87;;;12.80;39.10;;;;;;5099523;28;20505;-49